NOZ649 ENEV-EFKT
Flight info
| Callsign | NOZ649 |
|---|---|
| Flight time | 0h 41m |
| Altitude | 29000 |
| Route | OSKUB DCT EXUTI |
| Aircraft | B738/M-SDE2E3FGHIRWXY/LB1 |
Departure
| Time | 2026-04-24 15:55 |
|---|---|
| Airport | Harstad/Narvik Airport (ENEV) |
Arrival
| Time | 2026-04-24 16:37 |
|---|---|
| Airport | Kittilä International Airport (EFKT) |
| Time | Latitude | Longitude | Altitude | Speed | Heading |
|---|---|---|---|---|---|
| 2026-04-24 15:14 | 68.48973 | 16.68636 | 91 ft | 0 kts | 359° |
| 2026-04-24 15:41 | 68.48967 | 16.68636 | 118 ft | 3 kts | 359° |
| 2026-04-24 15:41 | 68.48947 | 16.68637 | 92 ft | 3 kts | 358° |
| 2026-04-24 15:41 | 68.48927 | 16.68639 | 91 ft | 3 kts | 357° |
| 2026-04-24 15:42 | 68.48907 | 16.68642 | 94 ft | 3 kts | 355° |
| 2026-04-24 15:42 | 68.48887 | 16.68647 | 93 ft | 3 kts | 354° |
| 2026-04-24 15:42 | 68.48878 | 16.68649 | 92 ft | 2 kts | 354° |
| 2026-04-24 15:47 | 68.48883 | 16.68642 | 93 ft | 1 kts | 332° |
| 2026-04-24 15:48 | 68.48888 | 16.68622 | 91 ft | 1 kts | 299° |
| 2026-04-24 15:48 | 68.48892 | 16.68559 | 94 ft | 6 kts | 275° |
| 2026-04-24 15:48 | 68.48890 | 16.68378 | 91 ft | 11 kts | 268° |
| 2026-04-24 15:48 | 68.48844 | 16.68229 | 87 ft | 12 kts | 184° |
| 2026-04-24 15:49 | 68.48761 | 16.68238 | 89 ft | 12 kts | 178° |
| 2026-04-24 15:49 | 68.48680 | 16.68248 | 89 ft | 11 kts | 177° |
| 2026-04-24 15:49 | 68.48599 | 16.68258 | 95 ft | 9 kts | 177° |
| 2026-04-24 15:49 | 68.48540 | 16.68265 | 98 ft | 9 kts | 178° |
| 2026-04-24 15:50 | 68.48481 | 16.68273 | 100 ft | 8 kts | 177° |
| 2026-04-24 15:50 | 68.48424 | 16.68281 | 100 ft | 8 kts | 178° |
| 2026-04-24 15:50 | 68.48353 | 16.68286 | 101 ft | 13 kts | 179° |
| 2026-04-24 15:50 | 68.48250 | 16.68296 | 102 ft | 17 kts | 178° |
| 2026-04-24 15:51 | 68.48119 | 16.68311 | 101 ft | 20 kts | 178° |
| 2026-04-24 15:51 | 68.47987 | 16.68327 | 99 ft | 16 kts | 177° |
| 2026-04-24 15:51 | 68.47928 | 16.68322 | 97 ft | 6 kts | 200° |
| 2026-04-24 15:51 | 68.47907 | 16.68223 | 92 ft | 0 kts | 261° |
| 2026-04-24 15:52 | 68.47902 | 16.68137 | 92 ft | 9 kts | 261° |
| 2026-04-24 15:53 | 68.47888 | 16.68002 | 91 ft | 4 kts | 274° |
| 2026-04-24 15:53 | 68.47904 | 16.67969 | 92 ft | 4 kts | 341° |
| 2026-04-24 15:53 | 68.47917 | 16.67965 | 89 ft | 0 kts | 356° |
| 2026-04-24 15:55 | 68.48125 | 16.67944 | 90 ft | 67 kts | 358° |
| 2026-04-24 15:55 | 68.48825 | 16.67862 | 96 ft | 132 kts | 357° |
| 2026-04-24 15:55 | 68.49844 | 16.67727 | 523 ft | 151 kts | 357° |
| 2026-04-24 15:55 | 68.50902 | 16.67631 | 1333 ft | 153 kts | 358° |
| 2026-04-24 15:56 | 68.51974 | 16.67575 | 2079 ft | 163 kts | 359° |
| 2026-04-24 15:56 | 68.53181 | 16.67708 | 2542 ft | 184 kts | 10° |
| 2026-04-24 15:56 | 68.54334 | 16.69610 | 2771 ft | 211 kts | 54° |
| 2026-04-24 15:56 | 68.54685 | 16.73491 | 3387 ft | 220 kts | 95° |
| 2026-04-24 15:57 | 68.54344 | 16.77602 | 4127 ft | 223 kts | 103° |
| 2026-04-24 15:57 | 68.53902 | 16.81810 | 4683 ft | 238 kts | 104° |
| 2026-04-24 15:57 | 68.53419 | 16.86243 | 5312 ft | 248 kts | 104° |
| 2026-04-24 15:57 | 68.52966 | 16.90413 | 5965 ft | 255 kts | 104° |
| 2026-04-24 15:58 | 68.52516 | 16.94742 | 6608 ft | 261 kts | 103° |
| 2026-04-24 15:58 | 68.52031 | 16.99593 | 7289 ft | 267 kts | 103° |
| 2026-04-24 15:58 | 68.51520 | 17.04531 | 8017 ft | 272 kts | 104° |
| 2026-04-24 15:58 | 68.51050 | 17.09542 | 8869 ft | 272 kts | 102° |
| 2026-04-24 15:59 | 68.50586 | 17.14547 | 9698 ft | 277 kts | 102° |
| 2026-04-24 15:59 | 68.50097 | 17.19737 | 10038 ft | 295 kts | 103° |
| 2026-04-24 15:59 | 68.49558 | 17.25386 | 10310 ft | 316 kts | 103° |
| 2026-04-24 15:59 | 68.48996 | 17.31284 | 10885 ft | 326 kts | 103° |
| 2026-04-24 16:00 | 68.48415 | 17.37302 | 11584 ft | 330 kts | 103° |
| 2026-04-24 16:00 | 68.47837 | 17.43417 | 12294 ft | 336 kts | 103° |
| 2026-04-24 16:00 | 68.47240 | 17.49529 | 13026 ft | 340 kts | 103° |
| 2026-04-24 16:00 | 68.46616 | 17.55778 | 13755 ft | 346 kts | 104° |
| 2026-04-24 16:01 | 68.45999 | 17.62195 | 14343 ft | 354 kts | 103° |
| 2026-04-24 16:01 | 68.45434 | 17.68787 | 15039 ft | 359 kts | 98° |
| 2026-04-24 16:01 | 68.45109 | 17.75562 | 15747 ft | 364 kts | 93° |
| 2026-04-24 16:01 | 68.44912 | 17.82480 | 16492 ft | 368 kts | 91° |
| 2026-04-24 16:02 | 68.44747 | 17.89485 | 17188 ft | 374 kts | 91° |
| 2026-04-24 16:02 | 68.44575 | 17.96614 | 17861 ft | 380 kts | 91° |
| 2026-04-24 16:02 | 68.44382 | 18.03860 | 18448 ft | 387 kts | 91° |
| 2026-04-24 16:02 | 68.44169 | 18.11131 | 19002 ft | 393 kts | 92° |
| 2026-04-24 16:03 | 68.43934 | 18.18588 | 19576 ft | 399 kts | 92° |
| 2026-04-24 16:03 | 68.43682 | 18.26147 | 20145 ft | 405 kts | 92° |
| 2026-04-24 16:03 | 68.43418 | 18.33854 | 20684 ft | 411 kts | 92° |
| 2026-04-24 16:03 | 68.43144 | 18.41654 | 21251 ft | 417 kts | 92° |
| 2026-04-24 16:04 | 68.42860 | 18.49571 | 21795 ft | 423 kts | 93° |
| 2026-04-24 16:04 | 68.42567 | 18.57597 | 22342 ft | 429 kts | 93° |
| 2026-04-24 16:04 | 68.42269 | 18.65599 | 22830 ft | 435 kts | 93° |
| 2026-04-24 16:04 | 68.41957 | 18.73940 | 23312 ft | 441 kts | 93° |
| 2026-04-24 16:05 | 68.41327 | 18.90594 | 24239 ft | 448 kts | 92° |
| 2026-04-24 16:05 | 68.41018 | 18.99043 | 24740 ft | 449 kts | 92° |
| 2026-04-24 16:06 | 68.40347 | 19.15774 | 26013 ft | 446 kts | 93° |
| 2026-04-24 16:06 | 68.39993 | 19.24181 | 26480 ft | 450 kts | 93° |
| 2026-04-24 16:06 | 68.39267 | 19.41170 | 27291 ft | 458 kts | 93° |
| 2026-04-24 16:07 | 68.38869 | 19.49835 | 27563 ft | 466 kts | 93° |
| 2026-04-24 16:07 | 68.38451 | 19.58624 | 27793 ft | 474 kts | 94° |
| 2026-04-24 16:07 | 68.37669 | 19.76433 | 28379 ft | 484 kts | 92° |
| 2026-04-24 16:08 | 68.37279 | 19.85591 | 28628 ft | 490 kts | 92° |
| 2026-04-24 16:08 | 68.36511 | 20.03453 | 28717 ft | 462 kts | 92° |
| 2026-04-24 16:09 | 68.35761 | 20.20342 | 28737 ft | 449 kts | 92° |
| 2026-04-24 16:09 | 68.35375 | 20.28790 | 28756 ft | 450 kts | 92° |
| 2026-04-24 16:09 | 68.34580 | 20.45708 | 28728 ft | 453 kts | 92° |
| 2026-04-24 16:11 | 68.32494 | 20.87511 | 28683 ft | 445 kts | 92° |
| 2026-04-24 16:11 | 68.32084 | 20.95714 | 28488 ft | 446 kts | 92° |
| 2026-04-24 16:11 | 68.31662 | 21.03976 | 28200 ft | 440 kts | 92° |
| 2026-04-24 16:12 | 68.30808 | 21.20284 | 27491 ft | 433 kts | 92° |
| 2026-04-24 16:12 | 68.30380 | 21.28327 | 27118 ft | 431 kts | 92° |
| 2026-04-24 16:12 | 68.29528 | 21.44128 | 26407 ft | 424 kts | 92° |
| 2026-04-24 16:13 | 68.29098 | 21.52004 | 26061 ft | 422 kts | 92° |
| 2026-04-24 16:13 | 68.28235 | 21.67617 | 25355 ft | 417 kts | 92° |
| 2026-04-24 16:14 | 68.27366 | 21.83050 | 24672 ft | 413 kts | 92° |
| 2026-04-24 16:14 | 68.26936 | 21.90604 | 24337 ft | 411 kts | 93° |
| 2026-04-24 16:14 | 68.26060 | 22.05768 | 23656 ft | 407 kts | 93° |
| 2026-04-24 16:15 | 68.25767 | 22.10783 | 23418 ft | 407 kts | 93° |
| 2026-04-24 16:15 | 68.24735 | 22.28266 | 22510 ft | 402 kts | 93° |
| 2026-04-24 16:16 | 68.23848 | 22.42996 | 21842 ft | 395 kts | 93° |
| 2026-04-24 16:16 | 68.23406 | 22.50274 | 21508 ft | 391 kts | 93° |
| 2026-04-24 16:17 | 68.22082 | 22.71711 | 20500 ft | 381 kts | 93° |
| 2026-04-24 16:17 | 68.21203 | 22.85710 | 19841 ft | 375 kts | 94° |
| 2026-04-24 16:18 | 68.20335 | 22.99351 | 19210 ft | 369 kts | 94° |
| 2026-04-24 16:18 | 68.19460 | 23.12900 | 18583 ft | 364 kts | 94° |
| 2026-04-24 16:18 | 68.19024 | 23.19594 | 18264 ft | 361 kts | 94° |
| 2026-04-24 16:19 | 68.18158 | 23.32745 | 17599 ft | 356 kts | 94° |
| 2026-04-24 16:19 | 68.17725 | 23.39261 | 17275 ft | 352 kts | 94° |
| 2026-04-24 16:20 | 68.16864 | 23.52089 | 16668 ft | 345 kts | 95° |
| 2026-04-24 16:20 | 68.16015 | 23.64590 | 16046 ft | 339 kts | 95° |
| 2026-04-24 16:20 | 68.15591 | 23.70794 | 15751 ft | 336 kts | 95° |
| 2026-04-24 16:21 | 68.14745 | 23.83051 | 15164 ft | 330 kts | 95° |
| 2026-04-24 16:21 | 68.14330 | 23.89012 | 14882 ft | 327 kts | 95° |
| 2026-04-24 16:21 | 68.13911 | 23.94991 | 14599 ft | 325 kts | 95° |
| 2026-04-24 16:22 | 68.13493 | 24.00938 | 14307 ft | 323 kts | 95° |
| 2026-04-24 16:22 | 68.12661 | 24.12712 | 13711 ft | 318 kts | 96° |
| 2026-04-24 16:22 | 68.12244 | 24.18532 | 13410 ft | 317 kts | 96° |
| 2026-04-24 16:23 | 68.11832 | 24.24251 | 13088 ft | 315 kts | 96° |
| 2026-04-24 16:23 | 68.11246 | 24.29928 | 12761 ft | 318 kts | 114° |
| 2026-04-24 16:23 | 68.09881 | 24.34564 | 12484 ft | 318 kts | 141° |
| 2026-04-24 16:24 | 68.05868 | 24.38880 | 11982 ft | 313 kts | 168° |
| 2026-04-24 16:24 | 68.03745 | 24.40328 | 11706 ft | 313 kts | 168° |
| 2026-04-24 16:24 | 68.01669 | 24.41734 | 11445 ft | 312 kts | 168° |
| 2026-04-24 16:24 | 67.99568 | 24.43176 | 11190 ft | 309 kts | 168° |
| 2026-04-24 16:25 | 67.97505 | 24.44610 | 10963 ft | 305 kts | 168° |
| 2026-04-24 16:25 | 67.95446 | 24.46052 | 10674 ft | 303 kts | 167° |
| 2026-04-24 16:25 | 67.93411 | 24.47484 | 10383 ft | 301 kts | 167° |
| 2026-04-24 16:26 | 67.89393 | 24.50307 | 9808 ft | 298 kts | 167° |
| 2026-04-24 16:26 | 67.87409 | 24.51694 | 9664 ft | 291 kts | 168° |
| 2026-04-24 16:26 | 67.84153 | 24.53809 | 9163 ft | 288 kts | 168° |
| 2026-04-24 16:27 | 67.81574 | 24.55442 | 8758 ft | 286 kts | 168° |
| 2026-04-24 16:27 | 67.79647 | 24.56664 | 8472 ft | 285 kts | 168° |
| 2026-04-24 16:27 | 67.78346 | 24.57490 | 8270 ft | 284 kts | 168° |
| 2026-04-24 16:27 | 67.76450 | 24.58696 | 7998 ft | 282 kts | 168° |
| 2026-04-24 16:28 | 67.74550 | 24.59905 | 7710 ft | 281 kts | 168° |
| 2026-04-24 16:28 | 67.72645 | 24.61115 | 7431 ft | 280 kts | 168° |
| 2026-04-24 16:28 | 67.68864 | 24.63510 | 6925 ft | 278 kts | 167° |
| 2026-04-24 16:29 | 67.66969 | 24.64708 | 6665 ft | 282 kts | 167° |
| 2026-04-24 16:29 | 67.65057 | 24.65914 | 6407 ft | 283 kts | 167° |
| 2026-04-24 16:29 | 67.61251 | 24.68310 | 5894 ft | 280 kts | 167° |
| 2026-04-24 16:30 | 67.57475 | 24.70683 | 5352 ft | 277 kts | 168° |
| 2026-04-24 16:30 | 67.55595 | 24.71858 | 5084 ft | 276 kts | 168° |
| 2026-04-24 16:30 | 67.53751 | 24.73010 | 4825 ft | 275 kts | 168° |
| 2026-04-24 16:31 | 67.51974 | 24.74783 | 4534 ft | 275 kts | 144° |
| 2026-04-24 16:31 | 67.50722 | 24.78442 | 4277 ft | 268 kts | 113° |
| 2026-04-24 16:31 | 67.50269 | 24.83031 | 4000 ft | 257 kts | 87° |
| 2026-04-24 16:31 | 67.50482 | 24.87488 | 3842 ft | 240 kts | 71° |
| 2026-04-24 16:32 | 67.50984 | 24.91426 | 3763 ft | 219 kts | 50° |
| 2026-04-24 16:32 | 67.52113 | 24.93579 | 3813 ft | 197 kts | 8° |
| 2026-04-24 16:32 | 67.53431 | 24.93885 | 3815 ft | 185 kts | 0° |
| 2026-04-24 16:32 | 67.54691 | 24.94016 | 3714 ft | 178 kts | 353° |
| 2026-04-24 16:33 | 67.55892 | 24.93669 | 3511 ft | 168 kts | 349° |
| 2026-04-24 16:33 | 67.57002 | 24.93167 | 3281 ft | 160 kts | 346° |
| 2026-04-24 16:33 | 67.58058 | 24.92529 | 3071 ft | 153 kts | 344° |
| 2026-04-24 16:33 | 67.59069 | 24.91881 | 2845 ft | 145 kts | 344° |
| 2026-04-24 16:34 | 67.60001 | 24.91277 | 2653 ft | 133 kts | 344° |
| 2026-04-24 16:34 | 67.60891 | 24.90699 | 2562 ft | 134 kts | 344° |
| 2026-04-24 16:34 | 67.61813 | 24.90099 | 2374 ft | 136 kts | 344° |
| 2026-04-24 16:34 | 67.62719 | 24.89501 | 2164 ft | 133 kts | 344° |
| 2026-04-24 16:35 | 67.63609 | 24.88915 | 1942 ft | 131 kts | 344° |
| 2026-04-24 16:35 | 67.64500 | 24.88325 | 1725 ft | 132 kts | 344° |
| 2026-04-24 16:35 | 67.65399 | 24.87755 | 1516 ft | 135 kts | 344° |
| 2026-04-24 16:35 | 67.66298 | 24.87138 | 1288 ft | 135 kts | 346° |
| 2026-04-24 16:36 | 67.67207 | 24.86550 | 1085 ft | 135 kts | 346° |
| 2026-04-24 16:36 | 67.68134 | 24.85969 | 893 ft | 139 kts | 346° |
| 2026-04-24 16:36 | 67.69062 | 24.85357 | 680 ft | 139 kts | 346° |
| 2026-04-24 16:36 | 67.69930 | 24.84798 | 639 ft | 114 kts | 346° |
| 2026-04-24 16:37 | 67.70480 | 24.84448 | 643 ft | 36 kts | 346° |
| 2026-04-24 16:37 | 67.70640 | 24.84342 | 639 ft | 14 kts | 350° |
| 2026-04-24 16:37 | 67.70721 | 24.84436 | 640 ft | 14 kts | 60° |
| 2026-04-24 16:37 | 67.70742 | 24.84660 | 643 ft | 4 kts | 80° |
| 2026-04-24 16:38 | 67.70739 | 24.84734 | 638 ft | 4 kts | 120° |
| 2026-04-24 16:38 | 67.70703 | 24.84781 | 636 ft | 9 kts | 165° |
| 2026-04-24 16:38 | 67.70587 | 24.84852 | 638 ft | 24 kts | 167° |
| 2026-04-24 16:38 | 67.70407 | 24.84963 | 641 ft | 27 kts | 166° |
| 2026-04-24 16:39 | 67.70246 | 24.85068 | 639 ft | 23 kts | 167° |
| 2026-04-24 16:39 | 67.70092 | 24.85161 | 639 ft | 22 kts | 166° |
| 2026-04-24 16:39 | 67.69943 | 24.85255 | 640 ft | 22 kts | 166° |
| 2026-04-24 16:39 | 67.69773 | 24.85359 | 643 ft | 28 kts | 167° |
| 2026-04-24 16:40 | 67.69634 | 24.85443 | 642 ft | 14 kts | 167° |
| 2026-04-24 16:40 | 67.69566 | 24.85485 | 641 ft | 9 kts | 161° |
| 2026-04-24 16:40 | 67.69550 | 24.85603 | 639 ft | 5 kts | 94° |
| 2026-04-24 16:40 | 67.69543 | 24.85674 | 640 ft | 2 kts | 117° |
| 2026-04-24 16:41 | 67.69542 | 24.85679 | 640 ft | 0 kts | 120° |
| 2026-04-24 16:41 | 67.69540 | 24.85686 | 639 ft | 0 kts | 123° |